MET'MAP v2.0
soon released !

Expected late october,
this new version will be
more efficient, smarter,
and hosted on a brand new
server x3 powerfull...
...and still free !


Not compatible ?
Try the mobile version !

LOG IN : | Subscribe | Disclaimer | Who is Orbifly ? |
ICAO code :
Legend : VFR Marginal VFR IFR Intensive IFR Very Intensive IFR
Visi :
Ceiling :
>= 8 km
>= 3000ft
5 to 8 km
1000 to 3000 ft
1500m to 5 km
500 to 1000 ft
800 to 1500m
200 to 500 ft
< 800m
< 200 ft

METAR - LEVD Valladolid - 02 Jun 2020 13:55 UTC
Data Sources :     NOAA   


- Airport Elevation : 2776 ft
- IATA code : VLL
- No reported NOTAMs.


LEVD - Valladolid

Latest METAR recorded : 2015/08/11 08:00 LEVD 110800Z 18006KT 150V210 CAVOK 23/10 Q1014
TAF TAF LEVD
Valid from the 02 at 12:00 until the 03 at 12:00 UTC


021100Z 0212/0312 VRB05KT CAVOK TX28/0216Z TN12/0305Z
PROB30
TEMPO 0214/0219 FEW045TCU
TEMPO 0218/0224 03013KT
BECMG 0308/0310 25010KT
PROB30
TEMPO 0311/0312 FEW050TCU

Source NOAA


MET'MAP, your aeronautical weather chart ! - Copyright ORBIFLY December 2007

Programming & Development : Alexandra Zaïnal
Co-Developer : Marc-Olivier Méhu
Technical & hardware support : Manuel Goepfert
Concept & Financing : Baudouin d'Aumeries